createdAt,value
2022-07-29T00:01:53.401Z,15.18
2022-07-29T00:04:58.977Z,15.21
2022-07-29T00:08:06.346Z,15.11
2022-07-29T00:11:15.042Z,15.09
2022-07-29T00:14:20.131Z,15.11
2022-07-29T00:17:27.170Z,14.85
2022-07-29T00:20:32.504Z,14.80
2022-07-29T00:23:37.918Z,14.93
2022-07-29T00:26:43.052Z,14.90
2022-07-29T00:29:48.497Z,15.00
2022-07-29T00:32:54.969Z,14.97
2022-07-29T00:36:00.126Z,14.92
2022-07-29T00:39:05.374Z,14.98
2022-07-29T00:42:11.156Z,14.84
2022-07-29T00:45:17.282Z,14.83
2022-07-29T00:48:23.917Z,14.93
2022-07-29T00:51:29.957Z,14.86
2022-07-29T00:54:39.829Z,14.70
2022-07-29T00:57:49.781Z,14.68
2022-07-29T01:00:55.549Z,14.67
2022-07-29T01:04:02.646Z,14.71
2022-07-29T01:07:08.464Z,14.74
2022-07-29T01:10:16.313Z,14.68
2022-07-29T01:13:22.140Z,14.71
2022-07-29T01:16:33.374Z,14.68
2022-07-29T01:19:51.560Z,14.62
2022-07-29T01:23:11.478Z,14.58
2022-07-29T01:26:34.153Z,14.57
2022-07-29T01:29:46.122Z,14.65
2022-07-29T01:32:57.169Z,14.70
2022-07-29T01:36:06.425Z,14.66
2022-07-29T01:39:16.670Z,14.66
2022-07-29T01:42:29.869Z,14.42
2022-07-29T01:45:42.684Z,14.29
2022-07-29T01:48:51.149Z,14.39
2022-07-29T01:52:01.191Z,14.43
2022-07-29T01:55:12.141Z,14.50
2022-07-29T01:58:20.577Z,14.42
2022-07-29T02:01:28.893Z,14.36
2022-07-29T02:04:35.017Z,14.49
2022-07-29T02:07:41.807Z,14.49
2022-07-29T02:10:47.695Z,14.53
2022-07-29T02:13:53.818Z,14.51
2022-07-29T02:17:01.526Z,14.37
2022-07-29T02:20:09.794Z,14.31
2022-07-29T02:23:22.950Z,14.33
2022-07-29T02:26:28.800Z,14.42
2022-07-29T02:29:35.332Z,14.45
2022-07-29T02:32:43.387Z,14.41
2022-07-29T02:35:49.966Z,14.38
2022-07-29T02:38:58.554Z,14.34
2022-07-29T02:42:07.953Z,14.43
2022-07-29T02:45:13.661Z,14.43
2022-07-29T02:48:23.628Z,14.17
2022-07-29T02:51:43.390Z,14.10
2022-07-29T02:54:58.210Z,14.20
2022-07-29T02:58:05.776Z,14.21
2022-07-29T03:01:21.740Z,14.34
2022-07-29T03:04:30.408Z,14.34
2022-07-29T03:07:37.112Z,14.23
2022-07-29T03:10:46.692Z,14.24
2022-07-29T03:13:52.364Z,14.30
2022-07-29T03:16:58.313Z,14.29
2022-07-29T03:20:05.992Z,14.33
2022-07-29T03:23:13.194Z,14.24
2022-07-29T03:26:18.607Z,14.29
2022-07-29T03:29:23.917Z,14.39
2022-07-29T03:32:30.329Z,14.36
2022-07-29T03:35:37.536Z,14.43
2022-07-29T03:38:43.925Z,14.35
2022-07-29T03:41:52.132Z,14.48
2022-07-29T03:44:58.960Z,14.42
2022-07-29T03:48:09.491Z,14.47
2022-07-29T03:51:16.397Z,14.51
2022-07-29T03:54:22.013Z,14.53
2022-07-29T03:57:29.653Z,14.54
2022-07-29T04:00:35.914Z,14.48
2022-07-29T04:03:41.697Z,14.53
2022-07-29T04:06:49.008Z,14.62
2022-07-29T04:09:54.344Z,14.62
2022-07-29T04:12:59.879Z,14.63
2022-07-29T04:16:05.383Z,14.65
2022-07-29T04:19:10.893Z,14.72
2022-07-29T04:22:17.295Z,14.77
2022-07-29T04:25:22.977Z,14.78
2022-07-29T04:28:49.796Z,14.81
2022-07-29T04:31:55.317Z,14.85
2022-07-29T04:35:00.385Z,14.93
2022-07-29T04:38:15.716Z,14.95
2022-07-29T04:41:22.161Z,14.95
2022-07-29T04:44:29.599Z,15.02
2022-07-29T04:47:35.692Z,15.04
2022-07-29T04:50:41.761Z,15.10
2022-07-29T04:53:48.235Z,15.16
2022-07-29T04:56:53.342Z,15.20
2022-07-29T04:59:58.806Z,15.20
2022-07-29T05:03:04.286Z,15.27
2022-07-29T05:06:09.504Z,15.27
2022-07-29T05:09:16.154Z,15.37
2022-07-29T05:12:21.319Z,15.38
2022-07-29T05:15:26.833Z,15.44
2022-07-29T05:18:32.396Z,15.48
2022-07-29T05:21:37.768Z,15.51
2022-07-29T05:24:45.386Z,15.59
2022-07-29T05:27:52.405Z,15.65
2022-07-29T05:30:57.707Z,15.69
2022-07-29T05:34:03.073Z,15.72
2022-07-29T05:37:08.727Z,15.80
2022-07-29T05:40:15.686Z,15.85
2022-07-29T05:43:22.015Z,15.91
2022-07-29T05:46:27.241Z,16.06
2022-07-29T05:49:32.951Z,16.42
2022-07-29T05:52:38.203Z,16.53
2022-07-29T05:55:44.788Z,16.75
2022-07-29T05:58:49.998Z,16.93
2022-07-29T06:01:55.164Z,17.18
2022-07-29T06:05:01.106Z,17.40
2022-07-29T06:08:08.406Z,17.54
2022-07-29T06:11:15.236Z,17.62
2022-07-29T06:14:20.997Z,17.83
2022-07-29T06:17:26.596Z,17.91
2022-07-29T06:20:32.675Z,18.04
2022-07-29T06:23:39.341Z,18.17
2022-07-29T06:26:45.897Z,18.36
2022-07-29T06:29:51.370Z,18.45
2022-07-29T06:32:56.581Z,18.54
2022-07-29T06:36:01.923Z,18.54
2022-07-29T06:39:08.617Z,18.70
2022-07-29T06:42:15.298Z,18.79
2022-07-29T06:45:20.456Z,19.03
2022-07-29T06:48:26.030Z,18.83
2022-07-29T06:51:31.371Z,18.80
2022-07-29T06:54:36.668Z,18.93
2022-07-29T06:57:43.225Z,19.63
2022-07-29T07:00:48.836Z,19.33
2022-07-29T07:03:53.921Z,19.26
2022-07-29T07:07:00.593Z,19.33
2022-07-29T07:10:07.268Z,19.47
2022-07-29T07:13:18.211Z,19.53
2022-07-29T07:16:23.952Z,19.62
2022-07-29T07:19:29.577Z,19.66
2022-07-29T07:22:38.793Z,19.74
2022-07-29T07:25:44.338Z,19.61
2022-07-29T07:28:50.848Z,19.78
2022-07-29T07:32:00.504Z,19.95
2022-07-29T07:35:09.097Z,19.95
2022-07-29T07:38:16.189Z,19.97
2022-07-29T07:41:21.338Z,20.06
2022-07-29T07:44:28.170Z,20.02
2022-07-29T07:47:34.239Z,20.02
2022-07-29T07:50:39.680Z,20.04
2022-07-29T07:53:45.806Z,20.02
2022-07-29T07:56:53.299Z,20.05
2022-07-29T08:00:00.041Z,20.20
2022-07-29T08:03:05.531Z,20.27
2022-07-29T08:06:22.019Z,20.21
2022-07-29T08:09:30.670Z,20.27
2022-07-29T08:12:35.994Z,20.34
2022-07-29T08:15:44.165Z,20.30
2022-07-29T08:18:49.822Z,20.11
2022-07-29T08:21:55.819Z,20.18
2022-07-29T08:25:01.421Z,20.15
2022-07-29T08:28:08.061Z,20.04
2022-07-29T08:31:16.317Z,19.97
2022-07-29T08:34:27.709Z,20.08
2022-07-29T08:37:33.337Z,20.11
2022-07-29T08:40:38.887Z,20.11
2022-07-29T08:43:44.137Z,20.12
2022-07-29T08:46:51.597Z,20.19
2022-07-29T08:49:56.675Z,20.11
2022-07-29T08:53:01.974Z,20.20
2022-07-29T08:56:07.400Z,20.27
2022-07-29T08:59:15.904Z,20.18
2022-07-29T09:02:24.679Z,20.27
2022-07-29T09:05:30.967Z,20.33
2022-07-29T09:08:36.741Z,20.39
2022-07-29T09:11:42.809Z,20.46
2022-07-29T09:14:47.976Z,20.55
2022-07-29T09:17:54.484Z,20.46
2022-07-29T09:21:28.561Z,20.45
2022-07-29T09:24:45.364Z,20.39
2022-07-29T09:27:53.136Z,20.42
2022-07-29T09:31:00.275Z,20.43
2022-07-29T09:34:07.557Z,20.41
2022-07-29T09:37:13.265Z,20.39
2022-07-29T09:40:20.872Z,20.42
2022-07-29T09:43:26.354Z,20.39
2022-07-29T09:46:31.626Z,20.41
2022-07-29T09:49:53.410Z,20.50
2022-07-29T09:52:58.612Z,20.63
2022-07-29T09:56:03.936Z,20.80
2022-07-29T09:59:10.100Z,20.87
2022-07-29T10:02:21.710Z,20.89
2022-07-29T10:05:36.362Z,20.95
2022-07-29T10:08:44.609Z,20.91
2022-07-29T10:12:10.148Z,20.91
2022-07-29T10:15:15.548Z,20.96
2022-07-29T10:18:21.071Z,21.05
2022-07-29T10:21:35.950Z,20.97
2022-07-29T10:24:42.188Z,21.22
2022-07-29T10:27:49.034Z,21.39
2022-07-29T10:31:00.510Z,21.50
2022-07-29T10:34:12.980Z,21.45
2022-07-29T10:37:26.916Z,21.33
2022-07-29T10:41:08.585Z,21.28
2022-07-29T10:44:19.133Z,21.31
2022-07-29T10:47:26.822Z,21.37
2022-07-29T10:50:56.408Z,21.42
2022-07-29T10:54:06.697Z,21.49
2022-07-29T10:57:15.726Z,21.44
2022-07-29T11:00:34.918Z,21.37
2022-07-29T11:03:52.444Z,21.37
2022-07-29T11:07:11.645Z,21.39
2022-07-29T11:10:31.239Z,21.45
2022-07-29T11:13:57.937Z,21.55
2022-07-29T11:17:06.920Z,21.46
2022-07-29T11:20:37.964Z,21.50
2022-07-29T11:23:44.648Z,21.53
2022-07-29T11:27:20.095Z,21.47
2022-07-29T11:30:53.032Z,21.48
2022-07-29T11:34:03.820Z,21.50
2022-07-29T11:37:27.949Z,21.60
2022-07-29T11:40:33.947Z,21.55
2022-07-29T11:43:54.135Z,21.57
2022-07-29T11:46:59.636Z,21.44
2022-07-29T11:50:10.344Z,21.35
2022-07-29T11:53:17.292Z,21.37
2022-07-29T11:56:25.558Z,21.48
2022-07-29T11:59:33.525Z,21.52
2022-07-29T12:02:48.540Z,21.64
2022-07-29T12:05:54.228Z,21.61
2022-07-29T12:09:02.729Z,21.66
2022-07-29T12:12:12.538Z,21.70
2022-07-29T12:15:22.417Z,21.81
2022-07-29T12:18:28.349Z,21.78
2022-07-29T12:21:56.173Z,21.79
2022-07-29T12:25:30.397Z,21.76
2022-07-29T12:28:31.067Z,21.73
2022-07-29T12:31:43.474Z,21.68
2022-07-29T12:34:49.685Z,21.67
2022-07-29T12:37:55.817Z,21.73
2022-07-29T12:41:01.429Z,21.83
2022-07-29T12:44:09.691Z,21.92
2022-07-29T12:47:16.518Z,22.11
2022-07-29T12:50:26.157Z,22.06
2022-07-29T12:53:31.781Z,21.94
2022-07-29T12:56:45.174Z,22.07
2022-07-29T13:00:11.115Z,22.09
2022-07-29T13:03:20.842Z,22.30
2022-07-29T13:08:29.472Z,22.42
2022-07-29T13:10:15.549Z,22.53
2022-07-29T13:13:20.633Z,22.59
2022-07-29T13:16:26.057Z,22.71
2022-07-29T13:19:41.593Z,22.69
2022-07-29T13:22:50.424Z,22.81
2022-07-29T13:25:55.486Z,22.61
2022-07-29T13:29:00.943Z,22.79
2022-07-29T13:32:07.250Z,23.05
2022-07-29T13:35:14.427Z,22.79
2022-07-29T13:38:19.564Z,22.76
2022-07-29T13:41:24.805Z,22.72
2022-07-29T13:44:31.271Z,24.15
2022-07-29T13:47:36.629Z,24.23
2022-07-29T13:50:43.145Z,23.97
2022-07-29T13:53:48.266Z,23.59
2022-07-29T13:56:53.774Z,23.76
2022-07-29T13:59:59.436Z,23.92
2022-07-29T14:03:04.866Z,23.81
2022-07-29T14:06:14.421Z,23.80
2022-07-29T14:09:20.104Z,23.53
2022-07-29T14:12:25.395Z,23.80
2022-07-29T14:15:30.529Z,23.55
2022-07-29T14:18:35.687Z,23.87
2022-07-29T14:21:42.860Z,24.33
2022-07-29T14:24:50.715Z,24.38
2022-07-29T14:27:56.640Z,23.97
2022-07-29T14:31:03.838Z,24.00
2022-07-29T14:34:11.221Z,24.00
2022-07-29T14:37:18.412Z,23.94
2022-07-29T14:40:23.733Z,23.67
2022-07-29T14:43:29.105Z,23.81
2022-07-29T14:46:34.728Z,24.01
2022-07-29T14:49:40.139Z,23.85
2022-07-29T14:52:46.591Z,23.44
2022-07-29T14:55:52.036Z,23.93
2022-07-29T14:58:57.118Z,23.86
2022-07-29T15:02:02.810Z,23.59
2022-07-29T15:05:09.354Z,23.46
2022-07-29T15:08:16.000Z,23.24
2022-07-29T15:11:21.260Z,23.08
2022-07-29T15:14:26.386Z,23.08
2022-07-29T15:17:31.597Z,23.02
2022-07-29T15:20:36.927Z,23.07
2022-07-29T15:23:43.453Z,23.27
2022-07-29T15:26:49.287Z,23.20
2022-07-29T15:29:54.355Z,23.39
2022-07-29T15:32:59.628Z,23.18
2022-07-29T15:36:06.301Z,23.15
2022-07-29T15:39:12.972Z,23.18
2022-07-29T15:42:18.077Z,23.27
2022-07-29T15:45:23.364Z,23.26
2022-07-29T15:48:29.266Z,23.08
2022-07-29T15:51:34.687Z,22.94
2022-07-29T15:54:41.855Z,22.62
2022-07-29T15:57:48.533Z,22.80
2022-07-29T16:00:53.892Z,22.78
2022-07-29T16:04:00.234Z,22.72
2022-07-29T16:07:05.604Z,22.82
2022-07-29T16:10:12.720Z,22.76
2022-07-29T16:13:18.989Z,22.70
2022-07-29T16:16:26.130Z,22.80
2022-07-29T16:19:31.281Z,22.84
2022-07-29T16:22:36.729Z,22.79
2022-07-29T16:25:59.274Z,22.77
2022-07-29T16:29:05.979Z,22.75
2022-07-29T16:32:12.553Z,22.71
2022-07-29T16:35:17.821Z,22.73
2022-07-29T16:38:23.049Z,22.75
2022-07-29T16:41:29.790Z,22.61
2022-07-29T16:44:35.991Z,22.70
2022-07-29T16:47:41.313Z,22.62
2022-07-29T16:50:47.367Z,22.63
2022-07-29T16:53:52.496Z,22.54
2022-07-29T16:57:00.876Z,22.47
2022-07-29T17:00:08.912Z,22.46
2022-07-29T17:03:17.366Z,22.34
2022-07-29T17:06:22.672Z,22.35
2022-07-29T17:09:27.936Z,22.36
2022-07-29T17:12:34.787Z,22.35
2022-07-29T17:15:42.532Z,22.16
2022-07-29T17:18:47.736Z,22.10
2022-07-29T17:21:57.123Z,22.10
2022-07-29T17:25:08.177Z,22.12
2022-07-29T17:28:15.177Z,21.91
2022-07-29T17:31:20.489Z,21.94
2022-07-29T17:34:25.649Z,21.82
2022-07-29T17:37:30.845Z,21.64
2022-07-29T17:40:36.203Z,21.54
2022-07-29T17:43:43.553Z,21.45
2022-07-29T17:46:48.746Z,21.36
2022-07-29T17:49:53.877Z,21.37
2022-07-29T17:52:59.360Z,21.40
2022-07-29T17:56:06.420Z,21.35
2022-07-29T17:59:14.523Z,21.20
2022-07-29T18:02:19.848Z,21.14
2022-07-29T18:05:25.223Z,21.14
2022-07-29T18:08:30.526Z,21.04
2022-07-29T18:11:35.710Z,21.00
2022-07-29T18:14:42.249Z,21.01
2022-07-29T18:17:56.677Z,21.04
2022-07-29T18:21:03.193Z,20.95
2022-07-29T18:24:09.683Z,20.90
2022-07-29T18:27:14.924Z,20.87
2022-07-29T18:30:22.202Z,20.74
2022-07-29T18:33:27.936Z,20.66
2022-07-29T18:36:33.152Z,20.52
2022-07-29T18:39:38.560Z,20.58
2022-07-29T18:42:43.725Z,20.55
2022-07-29T18:45:50.876Z,20.52
2022-07-29T18:48:57.396Z,20.42
2022-07-29T18:52:02.577Z,20.40
2022-07-29T18:55:09.757Z,20.42
2022-07-29T18:58:15.565Z,20.29
2022-07-29T19:01:22.205Z,20.20
2022-07-29T19:04:27.737Z,20.18
2022-07-29T19:07:33.220Z,20.19
2022-07-29T19:10:38.549Z,20.06
2022-07-29T19:13:43.680Z,20.04
2022-07-29T19:16:50.308Z,19.96
2022-07-29T19:19:55.650Z,19.87
2022-07-29T19:23:00.965Z,19.85
2022-07-29T19:26:06.670Z,19.74
2022-07-29T19:29:15.100Z,19.76
2022-07-29T19:32:24.857Z,19.71
2022-07-29T19:35:32.218Z,19.64
2022-07-29T19:38:39.762Z,19.60
2022-07-29T19:41:44.936Z,19.57
2022-07-29T19:44:50.137Z,19.48
2022-07-29T19:48:01.326Z,19.41
2022-07-29T19:51:07.359Z,19.43
2022-07-29T19:54:12.735Z,19.40
2022-07-29T19:57:18.248Z,19.41
2022-07-29T20:00:25.237Z,19.33
2022-07-29T20:03:32.149Z,19.23
2022-07-29T20:06:37.359Z,19.25
2022-07-29T20:09:43.553Z,19.17
2022-07-29T20:12:48.833Z,19.07
2022-07-29T20:15:57.714Z,19.12
2022-07-29T20:19:04.266Z,19.03
2022-07-29T20:22:10.329Z,19.03
2022-07-29T20:25:15.752Z,19.02
2022-07-29T20:28:21.063Z,19.08
2022-07-29T20:31:26.313Z,19.04
2022-07-29T20:34:33.286Z,18.98
2022-07-29T20:37:55.681Z,18.96
2022-07-29T20:41:01.695Z,18.94
2022-07-29T20:44:07.816Z,18.96
2022-07-29T20:47:13.618Z,18.87
2022-07-29T20:50:23.820Z,18.85
2022-07-29T20:53:29.515Z,18.90
2022-07-29T20:56:34.652Z,18.93
2022-07-29T20:59:44.070Z,18.82
2022-07-29T21:02:51.730Z,18.87
2022-07-29T21:05:58.308Z,18.85
2022-07-29T21:09:03.524Z,18.78
2022-07-29T21:12:11.112Z,18.80
2022-07-29T21:15:17.009Z,18.76
2022-07-29T21:18:30.601Z,18.63
2022-07-29T21:21:39.071Z,18.70
2022-07-29T21:24:44.518Z,18.74
2022-07-29T21:28:07.423Z,18.73
2022-07-29T21:31:15.060Z,18.66
2022-07-29T21:34:20.210Z,18.57
2022-07-29T21:37:27.171Z,18.66
2022-07-29T21:40:32.308Z,18.61
2022-07-29T21:43:37.655Z,18.62
2022-07-29T21:46:47.572Z,18.61
2022-07-29T21:49:53.070Z,18.67
2022-07-29T21:52:59.698Z,18.68
2022-07-29T21:56:04.924Z,18.67
2022-07-29T21:59:12.921Z,18.69
2022-07-29T22:05:42.286Z,18.64
2022-07-29T22:08:48.768Z,18.61
2022-07-29T22:11:54.373Z,18.56
2022-07-29T22:14:59.713Z,18.47
2022-07-29T22:18:05.398Z,18.42
2022-07-29T22:21:12.245Z,18.33
2022-07-29T22:24:18.677Z,18.30
2022-07-29T22:27:24.398Z,18.25
2022-07-29T22:30:30.067Z,18.18
2022-07-29T22:33:35.210Z,18.17
2022-07-29T22:36:40.560Z,18.10
2022-07-29T22:39:47.305Z,18.06
2022-07-29T22:42:52.453Z,17.98
2022-07-29T22:45:57.705Z,18.04
2022-07-29T22:49:03.089Z,17.99
2022-07-29T22:52:09.193Z,18.01
2022-07-29T22:55:16.033Z,17.99
2022-07-29T22:58:21.716Z,17.98
2022-07-29T23:01:35.889Z,17.99
2022-07-29T23:04:43.126Z,17.99
2022-07-29T23:07:48.331Z,18.02
2022-07-29T23:10:54.815Z,18.02
2022-07-29T23:14:00.041Z,17.94
2022-07-29T23:17:06.181Z,17.93
2022-07-29T23:20:14.837Z,17.88
2022-07-29T23:23:20.224Z,17.78
2022-07-29T23:26:26.844Z,17.78
2022-07-29T23:29:36.590Z,17.72
2022-07-29T23:32:42.220Z,17.66
2022-07-29T23:35:47.374Z,17.68
2022-07-29T23:38:52.524Z,17.67
2022-07-29T23:41:59.249Z,17.56
2022-07-29T23:45:04.908Z,17.60
2022-07-29T23:48:12.364Z,17.59
2022-07-29T23:51:17.885Z,17.58
2022-07-29T23:54:23.098Z,17.56
2022-07-29T23:57:29.736Z,17.57
